createdAt,value
2019-06-07T00:02:25.804Z,8.40
2019-06-07T00:04:57.531Z,14.00
2019-06-07T00:07:27.633Z,13.50
2019-06-07T00:09:57.588Z,10.03
2019-06-07T00:12:27.451Z,9.57
2019-06-07T00:14:57.482Z,10.10
2019-06-07T00:17:29.657Z,12.63
2019-06-07T00:19:59.606Z,14.83
2019-06-07T00:22:33.259Z,17.13
2019-06-07T00:25:01.166Z,16.50
2019-06-07T00:27:31.113Z,18.00
2019-06-07T00:30:29.751Z,17.77
2019-06-07T00:32:37.849Z,15.30
2019-06-07T00:35:09.106Z,14.23
2019-06-07T00:37:39.592Z,16.60
2019-06-07T00:40:20.635Z,19.00
2019-06-07T00:42:45.970Z,12.03
2019-06-07T00:45:19.026Z,18.30
2019-06-07T00:47:50.405Z,14.13
2019-06-07T00:50:23.942Z,14.27
2019-06-07T00:53:14.865Z,14.07
2019-06-07T00:55:29.689Z,13.30
2019-06-07T00:58:03.015Z,16.90
2019-06-07T01:00:35.525Z,18.37
2019-06-07T01:03:12.604Z,13.57
2019-06-07T01:05:51.671Z,19.23
2019-06-07T01:08:30.209Z,14.20
2019-06-07T01:11:08.797Z,11.57
2019-06-07T01:13:44.208Z,12.33
2019-06-07T01:16:22.244Z,17.07
2019-06-07T01:18:52.481Z,13.43
2019-06-07T01:21:29.587Z,11.97
2019-06-07T01:24:11.672Z,13.20
2019-06-07T01:26:34.992Z,16.23
2019-06-07T01:29:09.207Z,19.33
2019-06-07T01:31:40.874Z,19.00
2019-06-07T01:34:26.599Z,21.13
2019-06-07T01:37:05.504Z,12.43
2019-06-07T01:39:37.182Z,13.60
2019-06-07T01:42:18.180Z,15.87
2019-06-07T01:44:50.916Z,17.43
2019-06-07T01:47:28.765Z,19.03
2019-06-07T01:50:01.735Z,17.93
2019-06-07T01:52:34.004Z,17.57
2019-06-07T01:55:05.052Z,20.87
2019-06-07T01:57:47.873Z,16.67
2019-06-07T02:00:21.647Z,16.07
2019-06-07T02:02:57.461Z,18.47
2019-06-07T02:05:32.590Z,23.53
2019-06-07T02:08:02.894Z,19.63
2019-06-07T02:10:41.473Z,13.90
2019-06-07T02:13:15.814Z,12.23
2019-06-07T02:15:52.162Z,20.63
2019-06-07T02:18:28.200Z,16.87
2019-06-07T02:21:08.899Z,24.27
2019-06-07T02:23:47.317Z,18.53
2019-06-07T02:26:20.371Z,16.73
2019-06-07T02:28:50.576Z,22.97
2019-06-07T02:31:21.729Z,16.77
2019-06-07T02:34:06.612Z,14.33
2019-06-07T02:36:57.202Z,22.67
2019-06-07T02:39:28.836Z,17.53
2019-06-07T02:42:16.692Z,20.13
2019-06-07T02:51:09.734Z,14.50
2019-06-07T03:03:38.920Z,19.87
2019-06-07T03:06:01.907Z,18.53
2019-06-07T03:08:36.601Z,18.03
2019-06-07T03:14:57.311Z,19.67
2019-06-07T03:17:40.925Z,17.80
2019-06-07T03:27:48.251Z,25.27
2019-06-07T03:29:57.560Z,21.50
2019-06-07T03:32:32.025Z,13.77
2019-06-07T03:35:07.786Z,19.23
2019-06-07T03:37:50.597Z,22.20
2019-06-07T03:40:23.383Z,23.57
2019-06-07T03:43:03.362Z,23.77
2019-06-07T03:45:56.791Z,28.83
2019-06-07T03:48:35.728Z,15.87
2019-06-07T03:51:28.812Z,27.10
2019-06-07T03:57:14.896Z,29.43
2019-06-07T03:59:47.435Z,31.47
2019-06-07T04:02:41.753Z,21.07
2019-06-07T04:05:12.970Z,31.93
2019-06-07T04:23:55.674Z,23.20
2019-06-07T04:32:32.070Z,33.70
2019-06-07T04:35:02.326Z,20.90
2019-06-07T04:40:43.123Z,24.30
2019-06-07T04:46:39.839Z,25.93
2019-06-07T05:10:11.126Z,25.80
2019-06-07T05:16:13.766Z,21.77
2019-06-07T05:19:07.595Z,22.93
2019-06-07T05:22:23.798Z,18.70
2019-06-07T05:24:24.946Z,16.73
2019-06-07T05:33:09.080Z,15.40
2019-06-07T05:38:45.220Z,14.57
2019-06-07T05:41:23.371Z,14.20
2019-06-07T05:57:37.658Z,14.57
2019-06-07T06:00:08.066Z,15.27
2019-06-07T06:02:58.588Z,16.13
2019-06-07T06:05:09.328Z,13.37
2019-06-07T06:07:44.530Z,13.97
2019-06-07T06:10:13.750Z,15.13
2019-06-07T06:12:51.107Z,12.43
2019-06-07T06:15:15.172Z,11.70
2019-06-07T06:17:48.010Z,11.10
2019-06-07T06:20:16.887Z,13.67
2019-06-07T06:22:48.731Z,12.20
2019-06-07T06:25:34.360Z,10.53
2019-06-07T06:28:09.875Z,10.60
2019-06-07T06:30:21.663Z,11.20
2019-06-07T06:32:57.738Z,12.30
2019-06-07T06:35:22.879Z,10.73
2019-06-07T06:37:53.574Z,10.97
2019-06-07T06:40:24.442Z,11.60
2019-06-07T06:42:54.494Z,11.40
2019-06-07T06:45:24.449Z,11.27
2019-06-07T06:47:54.211Z,9.97
2019-06-07T06:50:24.051Z,8.80
2019-06-07T06:52:54.838Z,8.03
2019-06-07T06:55:24.954Z,8.63
2019-06-07T06:57:55.741Z,7.77
2019-06-07T07:01:04.980Z,7.50
2019-06-07T07:04:11.253Z,5.80
2019-06-07T07:06:24.263Z,6.77
2019-06-07T07:08:30.963Z,6.90
2019-06-07T07:11:00.918Z,5.30
2019-06-07T07:13:31.717Z,7.67
2019-06-07T07:16:09.596Z,6.83
2019-06-07T07:18:41.764Z,6.97
2019-06-07T07:21:11.863Z,5.40
2019-06-07T07:24:05.474Z,7.08
2019-06-07T07:26:13.218Z,7.53
2019-06-07T07:28:46.593Z,6.53
2019-06-07T07:31:15.156Z,7.75
2019-06-07T07:34:23.984Z,6.13
2019-06-07T07:36:37.555Z,5.40
2019-06-07T07:38:51.724Z,4.07
2019-06-07T07:41:19.844Z,4.50
2019-06-07T07:43:56.989Z,6.00
2019-06-07T07:46:29.038Z,6.83
2019-06-07T07:49:35.274Z,4.80
2019-06-07T07:52:00.363Z,6.03
2019-06-07T07:58:00.992Z,8.83
2019-06-07T08:03:12.574Z,6.90
2019-06-07T08:05:56.718Z,5.40
2019-06-07T08:08:28.610Z,6.60
2019-06-07T08:11:02.830Z,5.78
2019-06-07T08:13:32.131Z,5.42
2019-06-07T08:16:22.162Z,7.05
2019-06-07T08:19:05.877Z,5.40
2019-06-07T08:21:47.893Z,6.15
2019-06-07T08:24:18.903Z,5.75
2019-06-07T08:27:12.499Z,4.10
2019-06-07T08:29:20.664Z,4.20
2019-06-07T08:32:20.147Z,5.35
2019-06-07T08:34:39.755Z,5.20
2019-06-07T08:37:14.292Z,5.37
2019-06-07T08:39:56.729Z,6.00
2019-06-07T08:42:56.152Z,4.50
2019-06-07T08:45:16.625Z,5.40
2019-06-07T08:47:46.510Z,6.30
2019-06-07T08:50:34.348Z,7.03
2019-06-07T08:53:11.954Z,5.87
2019-06-07T08:55:39.251Z,5.37
2019-06-07T09:04:58.602Z,5.93
2019-06-07T09:07:37.489Z,7.03
2019-06-07T09:10:14.432Z,4.17
2019-06-07T09:17:05.489Z,5.00
2019-06-07T09:19:21.997Z,6.50
2019-06-07T09:22:10.663Z,7.67
2019-06-07T09:24:35.225Z,6.67
2019-06-07T09:27:12.978Z,6.30
2019-06-07T09:30:50.379Z,7.20
2019-06-07T09:35:46.159Z,4.43
2019-06-07T09:41:50.532Z,4.53
2019-06-07T09:47:41.598Z,3.77
2019-06-07T09:53:21.738Z,4.60
2019-06-07T09:55:48.329Z,6.40
2019-06-07T09:58:53.554Z,5.93
2019-06-07T10:06:40.576Z,4.53
2019-06-07T10:11:45.945Z,5.00
2019-06-07T10:14:19.291Z,5.53
2019-06-07T10:17:05.068Z,5.47
2019-06-07T10:19:35.177Z,3.93
2019-06-07T10:22:07.786Z,5.43
2019-06-07T10:24:52.914Z,3.57
2019-06-07T10:27:22.824Z,4.00
2019-06-07T10:29:52.690Z,6.20
2019-06-07T10:32:22.527Z,4.73
2019-06-07T10:35:13.836Z,5.07
2019-06-07T10:37:41.825Z,4.77
2019-06-07T10:40:12.019Z,6.60
2019-06-07T10:42:41.885Z,3.50
2019-06-07T10:45:13.128Z,3.30
2019-06-07T10:47:43.107Z,4.67
2019-06-07T10:50:13.663Z,4.87
2019-06-07T10:52:43.453Z,3.70
2019-06-07T10:55:13.692Z,2.60
2019-06-07T10:57:43.515Z,3.40
2019-06-07T11:00:15.449Z,3.77
2019-06-07T11:02:45.315Z,4.47
2019-06-07T11:05:16.141Z,4.80
2019-06-07T11:07:45.900Z,5.00
2019-06-07T11:10:19.700Z,5.60
2019-06-07T11:12:47.702Z,4.83
2019-06-07T11:15:21.118Z,2.80
2019-06-07T11:17:50.881Z,4.40
2019-06-07T11:20:20.818Z,4.70
2019-06-07T11:22:54.559Z,5.57
2019-06-07T11:25:24.365Z,3.13
2019-06-07T11:27:54.029Z,2.80
2019-06-07T11:30:24.003Z,3.43
2019-06-07T11:32:53.723Z,5.30
2019-06-07T11:35:23.648Z,3.37
2019-06-07T11:37:53.452Z,3.57
2019-06-07T11:40:44.455Z,4.37
2019-06-07T11:43:14.971Z,4.73
2019-06-07T11:45:47.791Z,5.23
2019-06-07T11:48:25.729Z,3.57
2019-06-07T11:51:02.918Z,2.97
2019-06-07T11:53:35.341Z,5.13
2019-06-07T11:56:05.184Z,3.47
2019-06-07T11:58:35.066Z,2.83
2019-06-07T12:01:18.701Z,3.63
2019-06-07T12:03:44.299Z,5.33
2019-06-07T12:06:21.171Z,3.73
2019-06-07T12:08:52.652Z,3.80
2019-06-07T12:11:25.934Z,4.30
2019-06-07T12:13:55.959Z,4.03
2019-06-07T12:16:27.269Z,4.40
2019-06-07T12:19:06.174Z,3.60
2019-06-07T12:24:35.264Z,4.40
2019-06-07T12:27:05.050Z,4.17
2019-06-07T12:29:34.807Z,4.13
2019-06-07T12:32:07.516Z,5.57
2019-06-07T12:34:47.434Z,5.37
2019-06-07T12:37:20.456Z,3.00
2019-06-07T12:39:48.792Z,3.30
2019-06-07T12:42:18.561Z,3.23
2019-06-07T12:44:48.423Z,3.23
2019-06-07T12:47:20.989Z,4.17
2019-06-07T12:49:53.907Z,4.63
2019-06-07T12:52:27.663Z,5.03
2019-06-07T12:58:37.225Z,4.03
2019-06-07T13:03:46.780Z,3.17
2019-06-07T13:06:19.966Z,3.20
2019-06-07T13:08:49.830Z,2.93
2019-06-07T13:11:28.238Z,5.10
2019-06-07T13:13:55.161Z,3.97
2019-06-07T13:16:43.992Z,3.47
2019-06-07T13:19:15.949Z,4.10
2019-06-07T13:22:08.317Z,3.43
2019-06-07T13:28:01.338Z,4.37
2019-06-07T13:30:36.892Z,4.37
2019-06-07T13:33:11.841Z,6.23
2019-06-07T13:35:48.569Z,4.30
2019-06-07T13:40:05.383Z,4.73
2019-06-07T13:41:42.858Z,4.33
2019-06-07T13:44:16.604Z,5.10
2019-06-07T13:46:46.793Z,4.20
2019-06-07T13:52:42.145Z,5.53
2019-06-07T13:55:15.278Z,5.50
2019-06-07T13:58:29.871Z,5.53
2019-06-07T14:02:10.424Z,4.30
2019-06-07T14:04:48.312Z,4.33
2019-06-07T14:07:50.862Z,3.97
2019-06-07T14:13:25.763Z,4.87
2019-06-07T14:19:16.567Z,3.70
2019-06-07T14:22:55.475Z,3.83
2019-06-07T14:35:22.455Z,5.50
2019-06-07T14:41:15.899Z,3.50
2019-06-07T14:43:55.970Z,3.90
2019-06-07T14:53:54.439Z,6.07
2019-06-07T14:56:33.116Z,5.33
2019-06-07T15:03:01.405Z,3.17
2019-06-07T15:08:45.298Z,3.17
2019-06-07T15:11:15.187Z,3.50
2019-06-07T15:13:44.983Z,3.47
2019-06-07T15:19:39.146Z,4.53
2019-06-07T15:22:03.365Z,5.03
2019-06-07T15:31:17.830Z,4.33
2019-06-07T15:39:20.284Z,3.50
2019-06-07T15:41:50.129Z,3.63
2019-06-07T15:44:19.990Z,5.03
2019-06-07T15:46:55.053Z,4.37
2019-06-07T15:49:24.978Z,5.60
2019-06-07T15:51:54.925Z,3.77
2019-06-07T15:54:26.328Z,4.37
2019-06-07T15:56:56.111Z,5.43
2019-06-07T15:59:25.982Z,3.83
2019-06-07T16:01:55.702Z,4.30
2019-06-07T16:04:27.079Z,4.30
2019-06-07T16:06:56.829Z,4.37
2019-06-07T16:09:27.037Z,4.73
2019-06-07T16:11:56.859Z,4.40
2019-06-07T16:14:43.809Z,3.90
2019-06-07T16:17:11.290Z,4.63
2019-06-07T16:19:46.642Z,4.37
2019-06-07T16:22:18.968Z,4.57
2019-06-07T16:24:49.021Z,4.90
2019-06-07T16:27:19.019Z,5.33
2019-06-07T16:29:53.431Z,5.83
2019-06-07T16:32:23.271Z,4.50
2019-06-07T16:34:53.257Z,4.90
2019-06-07T16:37:23.324Z,5.53
2019-06-07T16:39:55.953Z,4.43
2019-06-07T16:42:25.849Z,4.43
2019-06-07T16:44:55.756Z,4.90
2019-06-07T16:47:25.885Z,6.20
2019-06-07T16:49:55.872Z,4.77
2019-06-07T16:52:25.860Z,5.60
2019-06-07T16:54:55.923Z,5.07
2019-06-07T16:57:30.819Z,5.10
2019-06-07T17:00:11.545Z,5.57
2019-06-07T17:03:17.202Z,5.20
2019-06-07T17:05:50.448Z,5.43
2019-06-07T17:08:20.001Z,5.37
2019-06-07T17:10:49.923Z,5.50
2019-06-07T17:13:32.432Z,5.80
2019-06-07T17:15:51.429Z,5.13
2019-06-07T17:18:21.350Z,5.23
2019-06-07T17:20:51.282Z,5.37
2019-06-07T17:23:21.189Z,5.50
2019-06-07T17:25:51.215Z,6.20
2019-06-07T17:28:21.336Z,4.90
2019-06-07T17:30:51.110Z,10.67
2019-06-07T17:33:20.940Z,5.40
2019-06-07T17:35:50.859Z,5.70
2019-06-07T17:38:20.694Z,5.80
2019-06-07T17:40:53.249Z,5.57
2019-06-07T17:43:23.231Z,5.63
2019-06-07T17:45:53.035Z,6.00
2019-06-07T19:09:15.241Z,7.73
2019-06-07T19:11:45.492Z,6.10
2019-06-07T19:14:15.282Z,6.63
2019-06-07T19:16:45.166Z,8.27
2019-06-07T19:19:14.925Z,7.30
2019-06-07T19:21:46.963Z,7.73
2019-06-07T19:24:16.845Z,6.33
2019-06-07T19:26:50.515Z,6.43
2019-06-07T19:29:20.518Z,7.07
2019-06-07T19:31:50.784Z,10.33
2019-06-07T19:34:22.261Z,7.33
2019-06-07T19:36:53.503Z,6.80
2019-06-07T19:39:23.503Z,6.27
2019-06-07T19:41:54.065Z,8.13
2019-06-07T19:44:23.997Z,6.83
2019-06-07T19:46:54.335Z,7.87
2019-06-07T19:49:23.981Z,8.23
2019-06-07T19:51:54.957Z,9.33
2019-06-07T19:54:24.909Z,12.20
2019-06-07T19:56:55.482Z,9.47
2019-06-07T19:59:25.489Z,9.83
2019-06-07T20:01:55.872Z,9.33
2019-06-07T20:04:25.557Z,9.60
2019-06-07T20:06:56.222Z,10.83
2019-06-07T20:09:25.901Z,12.03
2019-06-07T20:11:56.489Z,11.70
2019-06-07T20:14:32.969Z,11.53
2019-06-07T20:17:29.648Z,13.17
2019-06-07T20:20:20.215Z,9.60
2019-06-07T20:23:10.724Z,9.83
2019-06-07T20:33:22.837Z,8.57
2019-06-07T20:35:52.686Z,7.17
2019-06-07T20:38:22.484Z,6.73
2019-06-07T20:40:52.205Z,6.33
2019-06-07T20:43:22.155Z,6.37
2019-06-07T20:45:52.003Z,6.63
2019-06-07T20:48:21.788Z,6.23
2019-06-07T20:50:51.561Z,6.20
2019-06-07T20:53:21.306Z,6.50
2019-06-07T20:55:51.097Z,6.50
2019-06-07T20:58:20.888Z,6.77
2019-06-07T21:00:51.316Z,5.57
2019-06-07T21:03:35.277Z,5.17
2019-06-07T21:06:07.510Z,7.07
2019-06-07T21:08:37.288Z,6.00
2019-06-07T21:11:07.761Z,4.67
2019-06-07T21:13:40.210Z,6.60
2019-06-07T21:16:10.494Z,5.10
2019-06-07T21:18:40.529Z,5.60
2019-06-07T21:21:10.678Z,7.00
2019-06-07T21:23:40.713Z,4.33
2019-06-07T21:26:11.073Z,6.40
2019-06-07T21:28:41.232Z,6.03
2019-06-07T21:31:14.220Z,7.90
2019-06-07T21:33:44.073Z,6.03
2019-06-07T21:36:13.935Z,7.67
2019-06-07T21:38:44.998Z,8.27
2019-06-07T21:41:14.692Z,5.40
2019-06-07T21:43:44.546Z,5.63
2019-06-07T21:46:20.249Z,5.00
2019-06-07T21:48:46.135Z,7.37
2019-06-07T21:51:16.061Z,4.47
2019-06-07T21:53:45.814Z,5.03
2019-06-07T21:56:15.598Z,5.83
2019-06-07T21:58:45.761Z,5.00
2019-06-07T22:01:18.231Z,4.73
2019-06-07T22:03:48.158Z,4.43
2019-06-07T22:06:18.061Z,4.40
2019-06-07T22:08:48.052Z,3.57
2019-06-07T22:11:17.982Z,4.70
2019-06-07T22:13:47.994Z,6.03
2019-06-07T22:16:28.436Z,3.63
2019-06-07T22:18:49.613Z,8.63
2019-06-07T22:21:19.462Z,3.40
2019-06-07T22:23:49.593Z,3.00
2019-06-07T22:26:20.744Z,2.97
2019-06-07T22:28:51.218Z,2.67
2019-06-07T22:31:22.302Z,3.60
2019-06-07T22:33:52.187Z,3.60
2019-06-07T22:36:22.093Z,3.10
2019-06-07T22:38:52.067Z,3.80
2019-06-07T22:41:21.910Z,6.57
2019-06-07T22:43:51.868Z,4.63
2019-06-07T22:46:36.273Z,4.00
2019-06-07T22:48:53.591Z,4.33
2019-06-07T22:51:24.020Z,3.90
2019-06-07T22:53:53.835Z,3.83
2019-06-07T22:56:25.342Z,7.33
2019-06-07T22:58:55.195Z,4.70
2019-06-07T23:01:27.166Z,4.60
2019-06-07T23:03:56.674Z,5.07
2019-06-07T23:06:26.554Z,3.57
2019-06-07T23:08:56.514Z,4.57
2019-06-07T23:11:26.382Z,3.90
2019-06-07T23:13:56.320Z,4.23
2019-06-07T23:16:26.195Z,3.37
2019-06-07T23:18:56.148Z,2.67
2019-06-07T23:21:28.714Z,3.40
2019-06-07T23:23:58.648Z,2.93
2019-06-07T23:26:28.576Z,3.53
2019-06-07T23:28:58.766Z,4.30
2019-06-07T23:31:28.652Z,3.60
2019-06-07T23:33:58.584Z,2.70
2019-06-07T23:36:28.377Z,3.77
2019-06-07T23:38:58.407Z,5.77
2019-06-07T23:41:28.340Z,3.50
2019-06-07T23:43:58.186Z,3.63
2019-06-07T23:46:28.161Z,2.83
2019-06-07T23:48:58.038Z,3.70
2019-06-07T23:51:27.843Z,2.93
2019-06-07T23:53:57.747Z,3.03
2019-06-07T23:56:27.729Z,3.43
2019-06-07T23:58:57.845Z,4.67
